createdAt,value
2022-11-15T00:01:14.978Z,83.44
2022-11-15T00:03:42.593Z,83.60
2022-11-15T00:06:10.632Z,83.68
2022-11-15T00:08:38.246Z,83.59
2022-11-15T00:11:06.008Z,83.49
2022-11-15T00:13:33.857Z,83.74
2022-11-15T00:16:02.245Z,83.96
2022-11-15T00:18:31.257Z,83.87
2022-11-15T00:21:08.552Z,83.91
2022-11-15T00:23:36.767Z,83.64
2022-11-15T00:26:04.700Z,83.66
2022-11-15T00:28:32.621Z,83.65
2022-11-15T00:31:05.055Z,83.78
2022-11-15T00:33:33.386Z,83.78
2022-11-15T00:36:03.474Z,83.76
2022-11-15T00:38:35.157Z,83.79
2022-11-15T00:41:09.173Z,83.66
2022-11-15T00:43:37.870Z,83.72
2022-11-15T00:46:05.890Z,83.82
2022-11-15T00:48:33.478Z,83.62
2022-11-15T00:51:01.294Z,83.48
2022-11-15T00:53:29.127Z,83.51
2022-11-15T00:55:57.006Z,83.49
2022-11-15T00:58:24.599Z,83.47
2022-11-15T01:00:52.291Z,83.45
2022-11-15T01:03:19.891Z,83.32
2022-11-15T01:05:47.454Z,83.31
2022-11-15T01:08:16.788Z,83.21
2022-11-15T01:10:44.374Z,82.93
2022-11-15T01:13:11.955Z,82.89
2022-11-15T01:15:42.678Z,83.04
2022-11-15T01:18:10.435Z,82.97
2022-11-15T01:20:42.204Z,82.87
2022-11-15T01:23:10.167Z,82.85
2022-11-15T01:25:38.763Z,82.89
2022-11-15T01:28:06.342Z,82.84
2022-11-15T01:30:33.922Z,82.94
2022-11-15T01:33:01.491Z,82.94
2022-11-15T01:35:29.070Z,82.97
2022-11-15T01:37:56.984Z,83.03
2022-11-15T01:40:24.690Z,82.99
2022-11-15T01:42:52.257Z,83.03
2022-11-15T01:45:19.812Z,83.26
2022-11-15T01:47:53.196Z,83.12
2022-11-15T01:50:25.887Z,83.07
2022-11-15T01:52:53.589Z,83.17
2022-11-15T01:55:25.259Z,83.11
2022-11-15T01:57:56.321Z,83.00
2022-11-15T02:00:24.009Z,82.88
2022-11-15T02:02:51.754Z,82.98
2022-11-15T02:05:19.445Z,83.07
2022-11-15T02:07:48.230Z,83.01
2022-11-15T02:10:21.348Z,83.01
2022-11-15T02:12:50.392Z,82.89
2022-11-15T02:15:18.632Z,82.92
2022-11-15T02:18:15.465Z,82.76
2022-11-15T02:21:15.543Z,82.63
2022-11-15T02:24:02.035Z,82.54
2022-11-15T02:26:57.548Z,82.58
2022-11-15T02:29:46.612Z,82.44
2022-11-15T02:32:23.965Z,82.34
2022-11-15T02:35:03.067Z,82.29
2022-11-15T02:37:56.858Z,82.26
2022-11-15T02:40:32.605Z,82.06
2022-11-15T02:43:25.083Z,82.03
2022-11-15T02:45:59.602Z,81.86
2022-11-15T02:48:27.381Z,81.84
2022-11-15T02:50:55.134Z,81.80
2022-11-15T02:53:26.756Z,81.61
2022-11-15T02:55:55.824Z,81.59
2022-11-15T02:59:00.989Z,81.66
2022-11-15T03:01:50.337Z,81.68
2022-11-15T03:04:20.695Z,81.68
2022-11-15T03:06:54.606Z,81.66
2022-11-15T03:09:43.643Z,81.59
2022-11-15T03:12:30.187Z,81.45
2022-11-15T03:15:02.720Z,81.21
2022-11-15T03:17:42.033Z,81.10
2022-11-15T03:20:11.389Z,81.25
2022-11-15T03:22:43.888Z,81.41
2022-11-15T03:25:19.034Z,81.51
2022-11-15T03:27:51.546Z,81.60
2022-11-15T03:30:20.061Z,81.80
2022-11-15T03:32:56.638Z,81.91
2022-11-15T03:35:45.597Z,82.05
2022-11-15T03:38:35.503Z,82.14
2022-11-15T03:41:09.993Z,82.05
2022-11-15T03:43:47.930Z,82.07
2022-11-15T03:46:20.819Z,82.15
2022-11-15T03:48:52.771Z,82.27
2022-11-15T03:51:20.789Z,82.21
2022-11-15T03:53:48.472Z,82.14
2022-11-15T03:56:16.093Z,82.05
2022-11-15T03:58:43.683Z,81.98
2022-11-15T04:01:11.300Z,81.94
2022-11-15T04:03:38.945Z,81.88
2022-11-15T04:06:06.987Z,81.86
2022-11-15T04:08:34.547Z,82.00
2022-11-15T04:11:02.452Z,82.09
2022-11-15T04:13:30.430Z,82.09
2022-11-15T04:15:58.234Z,81.87
2022-11-15T04:18:25.812Z,81.92
2022-11-15T04:20:53.353Z,81.89
2022-11-15T04:23:23.450Z,81.92
2022-11-15T04:25:54.827Z,81.78
2022-11-15T04:28:23.367Z,81.74
2022-11-15T04:30:50.911Z,81.76
2022-11-15T04:33:18.758Z,81.71
2022-11-15T04:35:46.365Z,81.72
2022-11-15T04:38:14.180Z,81.49
2022-11-15T04:40:41.766Z,81.51
2022-11-15T04:43:09.343Z,81.70
2022-11-15T04:45:37.018Z,81.83
2022-11-15T04:48:04.971Z,82.02
2022-11-15T04:50:32.558Z,82.11
2022-11-15T04:53:00.130Z,82.02
2022-11-15T04:55:27.713Z,82.13
2022-11-15T04:58:02.915Z,82.29
2022-11-15T05:00:30.690Z,82.27
2022-11-15T05:02:58.588Z,82.31
2022-11-15T05:05:26.167Z,82.29
2022-11-15T05:07:53.857Z,82.34
2022-11-15T05:10:21.545Z,82.32
2022-11-15T05:12:49.240Z,82.48
2022-11-15T05:15:16.967Z,82.61
2022-11-15T05:17:44.512Z,82.85
2022-11-15T05:20:14.505Z,82.85
2022-11-15T05:22:42.354Z,82.86
2022-11-15T05:25:09.957Z,82.71
2022-11-15T05:27:37.583Z,82.67
2022-11-15T05:30:05.616Z,82.72
2022-11-15T05:32:33.416Z,82.76
2022-11-15T05:35:01.030Z,82.83
2022-11-15T05:37:29.939Z,82.73
2022-11-15T05:39:58.665Z,82.58
2022-11-15T05:42:28.613Z,82.52
2022-11-15T05:44:58.210Z,82.73
2022-11-15T05:47:30.229Z,82.64
2022-11-15T05:49:58.713Z,82.83
2022-11-15T05:52:31.669Z,83.01
2022-11-15T05:55:00.111Z,83.00
2022-11-15T05:57:27.683Z,82.92
2022-11-15T05:59:59.102Z,82.93
2022-11-15T06:02:26.764Z,82.86
2022-11-15T06:04:54.416Z,82.85
2022-11-15T06:07:22.283Z,82.90
2022-11-15T06:09:49.957Z,82.72
2022-11-15T06:12:17.553Z,82.64
2022-11-15T06:14:45.254Z,82.52
2022-11-15T06:17:12.875Z,82.63
2022-11-15T06:19:40.627Z,82.61
2022-11-15T06:22:08.376Z,82.78
2022-11-15T06:24:36.132Z,82.75
2022-11-15T06:27:03.849Z,82.78
2022-11-15T06:29:31.537Z,82.72
2022-11-15T06:31:59.145Z,82.83
2022-11-15T06:34:26.773Z,82.94
2022-11-15T06:36:54.405Z,83.07
2022-11-15T06:39:21.994Z,83.32
2022-11-15T06:41:49.584Z,83.42
2022-11-15T06:44:17.156Z,83.49
2022-11-15T06:46:44.725Z,83.50
2022-11-15T06:49:12.296Z,83.47
2022-11-15T06:51:39.872Z,83.38
2022-11-15T06:54:07.446Z,83.45
2022-11-15T06:56:35.424Z,83.36
2022-11-15T06:59:03.063Z,83.28
2022-11-15T07:01:30.784Z,83.13
2022-11-15T07:03:58.572Z,83.01
2022-11-15T07:06:26.205Z,82.97
2022-11-15T07:08:53.765Z,82.72
2022-11-15T07:11:21.360Z,82.63
2022-11-15T07:13:48.896Z,82.74
2022-11-15T07:16:16.545Z,82.76
2022-11-15T07:18:44.130Z,82.52
2022-11-15T07:21:11.942Z,82.60
2022-11-15T07:23:40.925Z,82.74
2022-11-15T07:26:09.376Z,82.45
2022-11-15T07:28:37.467Z,82.29
2022-11-15T07:31:07.399Z,82.23
2022-11-15T07:33:36.146Z,82.39
2022-11-15T07:36:06.635Z,82.42
2022-11-15T07:38:40.960Z,82.25
2022-11-15T07:41:10.855Z,82.30
2022-11-15T07:43:38.460Z,82.10
2022-11-15T07:46:08.147Z,81.83
2022-11-15T07:48:43.874Z,81.74
2022-11-15T07:51:16.437Z,81.45
2022-11-15T07:53:44.889Z,81.32
2022-11-15T07:56:13.421Z,81.17
2022-11-15T07:58:41.008Z,81.17
2022-11-15T08:01:10.730Z,81.32
2022-11-15T08:03:38.482Z,81.15
2022-11-15T08:06:06.311Z,80.97
2022-11-15T08:08:33.886Z,80.83
2022-11-15T08:11:01.970Z,80.95
2022-11-15T08:13:29.806Z,80.85
2022-11-15T08:16:02.147Z,80.90
2022-11-15T08:18:29.803Z,80.93
2022-11-15T08:21:03.785Z,80.90
2022-11-15T08:23:31.802Z,80.99
2022-11-15T08:26:01.551Z,81.15
2022-11-15T08:28:29.534Z,81.37
2022-11-15T08:30:57.239Z,81.58
2022-11-15T08:33:25.102Z,81.66
2022-11-15T08:35:52.692Z,81.52
2022-11-15T08:38:20.364Z,81.81
2022-11-15T08:40:48.151Z,81.64
2022-11-15T08:43:15.753Z,81.60
2022-11-15T08:45:43.368Z,81.66
2022-11-15T08:48:11.025Z,81.65
2022-11-15T08:50:38.572Z,81.68
2022-11-15T08:53:10.885Z,81.76
2022-11-15T08:55:39.813Z,81.75
2022-11-15T08:58:07.697Z,81.89
2022-11-15T09:00:35.359Z,81.93
2022-11-15T09:03:07.060Z,82.25
2022-11-15T09:05:36.823Z,82.22
2022-11-15T09:08:25.022Z,82.16
2022-11-15T09:10:52.885Z,82.09
2022-11-15T09:13:20.479Z,81.93
2022-11-15T09:15:48.125Z,81.95
2022-11-15T09:18:15.855Z,81.77
2022-11-15T09:20:43.420Z,81.95
2022-11-15T09:23:11.001Z,81.65
2022-11-15T09:25:38.573Z,81.49
2022-11-15T09:28:09.708Z,81.62
2022-11-15T09:30:37.273Z,81.49
2022-11-15T09:33:09.919Z,81.55
2022-11-15T09:35:37.588Z,81.72
2022-11-15T09:38:05.846Z,81.94
2022-11-15T09:40:37.541Z,82.20
2022-11-15T09:43:30.255Z,82.03
2022-11-15T09:46:53.678Z,81.78
2022-11-15T09:49:22.241Z,81.64
2022-11-15T09:51:52.250Z,81.41
2022-11-15T09:54:52.918Z,81.15
2022-11-15T09:58:01.713Z,80.43
2022-11-15T10:00:52.713Z,80.21
2022-11-15T10:03:39.436Z,80.05
2022-11-15T10:06:10.833Z,79.91
2022-11-15T10:08:44.341Z,79.88
2022-11-15T10:14:19.499Z,80.10
2022-11-15T10:16:53.130Z,80.09
2022-11-15T10:19:20.664Z,80.13
2022-11-15T10:22:00.084Z,80.23
2022-11-15T10:24:31.753Z,80.56
2022-11-15T10:26:59.242Z,80.16
2022-11-15T10:29:27.444Z,80.15
2022-11-15T10:31:55.193Z,80.14
2022-11-15T10:34:24.872Z,80.14
2022-11-15T10:36:57.657Z,79.97
2022-11-15T10:39:26.220Z,80.19
2022-11-15T10:41:54.677Z,80.30
2022-11-15T10:44:30.190Z,80.38
2022-11-15T10:46:57.730Z,80.52
2022-11-15T10:49:28.090Z,80.80
2022-11-15T10:52:16.090Z,80.81
2022-11-15T10:54:48.351Z,80.57
2022-11-15T10:57:21.353Z,80.62
2022-11-15T11:00:05.698Z,80.60
2022-11-15T11:02:46.571Z,80.60
2022-11-15T11:05:29.294Z,80.80
2022-11-15T11:08:03.284Z,80.69
2022-11-15T11:13:30.766Z,81.15
2022-11-15T11:16:01.067Z,81.03
2022-11-15T11:18:39.544Z,81.26
2022-11-15T11:21:14.017Z,81.32
2022-11-15T11:24:04.405Z,81.19
2022-11-15T11:27:07.491Z,81.24
2022-11-15T11:29:50.116Z,81.27
2022-11-15T11:32:55.856Z,81.11
2022-11-15T11:35:46.467Z,80.79
2022-11-15T11:38:29.366Z,80.56
2022-11-15T11:41:35.567Z,80.59
2022-11-15T11:44:18.440Z,80.45
2022-11-15T11:46:56.222Z,80.71
2022-11-15T11:49:51.520Z,80.89
2022-11-15T11:52:59.480Z,80.97
2022-11-15T11:55:40.316Z,80.86
2022-11-15T11:58:36.218Z,80.73
2022-11-15T12:01:29.382Z,80.26
2022-11-15T12:04:05.095Z,80.24
2022-11-15T12:06:54.629Z,80.36
2022-11-15T12:09:40.454Z,80.36
2022-11-15T12:12:36.776Z,80.54
2022-11-15T12:15:18.018Z,80.26
2022-11-15T12:17:47.236Z,80.26
2022-11-15T12:20:17.351Z,79.93
2022-11-15T12:23:11.869Z,80.04
2022-11-15T12:25:51.544Z,79.84
2022-11-15T12:29:05.932Z,80.10
2022-11-15T12:31:35.797Z,80.19
2022-11-15T12:34:36.118Z,80.26
2022-11-15T12:37:34.164Z,80.48
2022-11-15T12:40:04.660Z,80.31
2022-11-15T12:42:36.420Z,80.31
2022-11-15T12:45:23.910Z,80.40
2022-11-15T12:47:51.545Z,80.27
2022-11-15T12:50:54.092Z,80.20
2022-11-15T12:53:24.417Z,80.37
2022-11-15T12:56:07.205Z,80.32
2022-11-15T12:58:43.792Z,80.47
2022-11-15T13:01:11.639Z,80.56
2022-11-15T13:04:17.908Z,80.47
2022-11-15T13:06:46.775Z,80.57
2022-11-15T13:09:32.768Z,80.83
2022-11-15T13:12:28.117Z,80.79
2022-11-15T13:14:57.971Z,80.83
2022-11-15T13:17:27.380Z,80.96
2022-11-15T13:19:59.819Z,80.98
2022-11-15T13:22:28.901Z,80.90
2022-11-15T13:24:57.395Z,80.88
2022-11-15T13:27:25.888Z,80.99
2022-11-15T13:29:54.286Z,80.76
2022-11-15T13:32:22.531Z,81.04
2022-11-15T13:34:52.705Z,81.05
2022-11-15T13:37:20.630Z,81.17
2022-11-15T13:39:49.769Z,81.05
2022-11-15T13:42:20.206Z,80.92
2022-11-15T13:45:00.279Z,81.25
2022-11-15T13:47:29.844Z,81.24
2022-11-15T13:50:00.959Z,81.28
2022-11-15T13:52:34.370Z,81.08
2022-11-15T13:55:11.951Z,80.97
2022-11-15T13:58:01.341Z,81.06
2022-11-15T14:00:34.687Z,81.22
2022-11-15T14:03:14.627Z,81.36
2022-11-15T14:05:45.195Z,81.54
2022-11-15T14:08:21.701Z,81.45
2022-11-15T14:10:49.587Z,81.61
2022-11-15T14:13:31.677Z,81.43
2022-11-15T14:16:21.736Z,81.53
2022-11-15T14:18:51.933Z,81.74
2022-11-15T14:21:21.068Z,81.81
2022-11-15T14:23:48.734Z,81.69
2022-11-15T14:26:33.797Z,81.72
2022-11-15T14:29:23.115Z,81.71
2022-11-15T14:31:50.951Z,81.86
2022-11-15T14:34:18.574Z,81.75
2022-11-15T14:36:46.185Z,81.90
2022-11-15T14:39:13.790Z,81.86
2022-11-15T14:41:41.523Z,81.71
2022-11-15T14:44:11.745Z,81.70
2022-11-15T14:46:39.401Z,81.74
2022-11-15T14:49:07.011Z,81.98
2022-11-15T14:51:34.598Z,81.99
2022-11-15T14:54:02.432Z,81.81
2022-11-15T14:56:30.020Z,81.97
2022-11-15T14:59:00.692Z,81.96
2022-11-15T15:01:28.282Z,82.17
2022-11-15T15:03:55.924Z,82.10
2022-11-15T15:06:23.963Z,82.01
2022-11-15T15:08:51.533Z,81.98
2022-11-15T15:11:25.207Z,82.25
2022-11-15T15:13:53.828Z,82.19
2022-11-15T15:16:21.353Z,82.20
2022-11-15T15:18:48.962Z,82.07
2022-11-15T15:21:32.213Z,82.15
2022-11-15T15:24:03.222Z,81.99
2022-11-15T15:26:30.894Z,82.27
2022-11-15T15:28:58.664Z,82.37
2022-11-15T15:31:26.316Z,82.27
2022-11-15T15:33:53.880Z,82.23
2022-11-15T15:36:21.562Z,82.41
2022-11-15T15:38:49.152Z,82.38
2022-11-15T15:41:17.675Z,82.52
2022-11-15T15:43:45.492Z,82.47
2022-11-15T15:46:15.951Z,82.50
2022-11-15T15:48:44.424Z,82.62
2022-11-15T15:51:19.589Z,82.58
2022-11-15T15:53:49.117Z,82.78
2022-11-15T15:56:19.027Z,82.69
2022-11-15T15:58:46.969Z,82.64
2022-11-15T16:01:14.617Z,82.64
2022-11-15T16:03:42.548Z,82.76
2022-11-15T16:06:34.811Z,82.84
2022-11-15T16:09:19.024Z,82.84
2022-11-15T16:11:47.800Z,83.08
2022-11-15T16:14:15.437Z,82.98
2022-11-15T16:16:43.056Z,83.00
2022-11-15T16:19:11.482Z,83.06
2022-11-15T16:21:39.080Z,83.09
2022-11-15T16:24:06.666Z,83.01
2022-11-15T16:26:36.573Z,82.97
2022-11-15T16:29:04.202Z,83.19
2022-11-15T16:31:31.734Z,83.33
2022-11-15T16:33:59.292Z,83.17
2022-11-15T16:36:30.727Z,83.36
2022-11-15T16:38:58.879Z,83.30
2022-11-15T16:41:26.879Z,83.34
2022-11-15T16:43:54.546Z,83.51
2022-11-15T16:46:27.192Z,83.63
2022-11-15T16:48:55.116Z,83.63
2022-11-15T16:51:23.934Z,83.77
2022-11-15T16:53:51.623Z,83.63
2022-11-15T16:56:30.405Z,83.70
2022-11-15T16:58:59.632Z,83.75
2022-11-15T17:01:31.201Z,83.89
2022-11-15T17:03:59.447Z,83.93
2022-11-15T17:06:27.300Z,83.94
2022-11-15T17:08:55.373Z,83.67
2022-11-15T17:11:22.953Z,83.73
2022-11-15T17:13:50.557Z,83.75
2022-11-15T17:16:18.460Z,83.82
2022-11-15T17:18:51.494Z,83.89
2022-11-15T17:21:21.488Z,83.84
2022-11-15T17:23:49.404Z,83.88
2022-11-15T17:26:29.558Z,83.80
2022-11-15T17:28:58.264Z,83.81
2022-11-15T17:31:25.842Z,83.93
2022-11-15T17:33:53.691Z,83.83
2022-11-15T17:36:21.287Z,83.91
2022-11-15T17:38:48.987Z,84.02
2022-11-15T17:41:16.908Z,84.19
2022-11-15T17:43:44.724Z,84.20
2022-11-15T17:46:18.288Z,84.22
2022-11-15T17:48:46.905Z,84.39
2022-11-15T17:51:17.126Z,84.34
2022-11-15T17:53:47.610Z,84.50
2022-11-15T17:56:20.609Z,84.54
2022-11-15T17:58:53.471Z,84.61
2022-11-15T18:01:23.950Z,84.50
2022-11-15T18:03:52.815Z,84.64
2022-11-15T18:06:22.931Z,84.67
2022-11-15T18:08:52.334Z,84.89
2022-11-15T18:11:28.840Z,84.79
2022-11-15T18:13:59.994Z,84.67
2022-11-15T18:16:29.949Z,84.48
2022-11-15T18:19:01.002Z,84.61
2022-11-15T18:21:30.819Z,84.54
2022-11-15T18:24:00.782Z,84.35
2022-11-15T18:26:30.429Z,84.54
2022-11-15T18:29:05.050Z,84.71
2022-11-15T18:31:32.627Z,84.79
2022-11-15T18:34:00.810Z,85.01
2022-11-15T18:36:33.082Z,84.76
2022-11-15T18:39:02.139Z,84.78
2022-11-15T18:41:30.413Z,84.79
2022-11-15T18:44:00.103Z,84.75
2022-11-15T18:46:30.271Z,84.75
2022-11-15T18:48:59.917Z,84.67
2022-11-15T18:51:30.482Z,84.60
2022-11-15T18:54:00.688Z,84.54
2022-11-15T18:56:30.201Z,84.65
2022-11-15T18:58:59.918Z,84.49
2022-11-15T19:01:42.118Z,84.52
2022-11-15T19:04:13.809Z,84.42
2022-11-15T19:06:43.344Z,84.48
2022-11-15T19:09:13.060Z,84.47
2022-11-15T19:11:41.796Z,84.37
2022-11-15T19:14:11.620Z,84.39
2022-11-15T19:16:44.804Z,84.45
2022-11-15T19:19:17.988Z,84.64
2022-11-15T19:21:46.075Z,84.44
2022-11-15T19:24:13.748Z,84.60
2022-11-15T19:26:41.512Z,84.39
2022-11-15T19:29:09.957Z,84.37
2022-11-15T19:31:38.321Z,84.55
2022-11-15T19:34:06.787Z,84.47
2022-11-15T19:36:37.553Z,84.54
2022-11-15T19:39:08.122Z,84.59
2022-11-15T19:41:37.301Z,84.51
2022-11-15T19:44:06.177Z,84.70
2022-11-15T19:46:34.821Z,84.57
2022-11-15T19:49:02.456Z,84.71
2022-11-15T19:51:30.810Z,84.83
2022-11-15T19:54:00.778Z,84.64
2022-11-15T19:56:28.466Z,84.55
2022-11-15T19:58:56.936Z,84.58
2022-11-15T20:01:27.498Z,84.58
2022-11-15T20:03:57.614Z,84.70
2022-11-15T20:06:30.591Z,84.71
2022-11-15T20:08:58.938Z,84.76
2022-11-15T20:11:27.666Z,85.01
2022-11-15T20:13:59.909Z,84.89
2022-11-15T20:16:28.094Z,84.92
2022-11-15T20:18:55.660Z,84.98
2022-11-15T20:21:23.464Z,84.82
2022-11-15T20:23:51.867Z,84.76
2022-11-15T20:26:20.828Z,84.61
2022-11-15T20:28:48.836Z,84.60
2022-11-15T20:31:16.935Z,84.61
2022-11-15T20:33:44.934Z,84.65
2022-11-15T20:36:14.722Z,84.70
2022-11-15T20:38:43.759Z,84.71
2022-11-15T20:41:15.112Z,84.72
2022-11-15T20:43:42.847Z,84.88
2022-11-15T20:46:12.034Z,84.95
2022-11-15T20:48:40.083Z,85.02
2022-11-15T20:51:18.579Z,84.86
2022-11-15T20:53:47.752Z,84.88
2022-11-15T20:56:18.476Z,85.00
2022-11-15T20:58:47.130Z,84.76
2022-11-15T21:01:15.571Z,84.80
2022-11-15T21:03:46.268Z,84.85
2022-11-15T21:06:13.884Z,84.85
2022-11-15T21:08:41.515Z,85.08
2022-11-15T21:11:09.403Z,85.13
2022-11-15T21:13:39.398Z,85.21
2022-11-15T21:16:07.639Z,85.17
2022-11-15T21:18:35.663Z,85.28
2022-11-15T21:21:06.505Z,85.26
2022-11-15T21:23:34.163Z,85.05
2022-11-15T21:26:01.769Z,85.14
2022-11-15T21:28:32.180Z,85.28
2022-11-15T21:31:00.437Z,85.19
2022-11-15T21:33:28.414Z,85.20
2022-11-15T21:35:57.330Z,85.16
2022-11-15T21:38:25.559Z,85.10
2022-11-15T21:40:53.726Z,84.99
2022-11-15T21:43:21.581Z,84.95
2022-11-15T21:46:00.212Z,84.94
2022-11-15T21:48:29.765Z,85.00
2022-11-15T21:51:08.570Z,84.98
2022-11-15T21:53:36.172Z,85.10
2022-11-15T21:56:04.102Z,85.15
2022-11-15T21:58:32.081Z,85.30
2022-11-15T22:01:00.242Z,85.29
2022-11-15T22:03:28.898Z,85.17
2022-11-15T22:05:56.873Z,85.21
2022-11-15T22:08:25.531Z,85.23
2022-11-15T22:10:53.545Z,85.31
2022-11-15T22:13:21.104Z,85.43
2022-11-15T22:15:48.807Z,85.38
2022-11-15T22:18:16.416Z,85.19
2022-11-15T22:20:58.021Z,85.26
2022-11-15T22:23:27.681Z,85.22
2022-11-15T22:25:55.416Z,85.34
2022-11-15T22:28:23.411Z,85.35
2022-11-15T22:30:53.223Z,85.42
2022-11-15T22:33:23.210Z,85.32
2022-11-15T22:35:51.401Z,85.21
2022-11-15T22:38:19.422Z,85.22
2022-11-15T22:40:47.316Z,85.20
2022-11-15T22:43:18.334Z,85.36
2022-11-15T22:45:53.082Z,85.47
2022-11-15T22:48:23.473Z,85.59
2022-11-15T22:50:51.519Z,85.58
2022-11-15T22:53:19.486Z,85.62
2022-11-15T22:55:51.981Z,85.65
2022-11-15T22:58:21.118Z,85.51
2022-11-15T23:00:53.523Z,85.52
2022-11-15T23:03:22.357Z,85.61
2022-11-15T23:05:50.412Z,85.52
2022-11-15T23:08:18.567Z,85.78
2022-11-15T23:10:46.513Z,85.80
2022-11-15T23:13:14.720Z,85.79
2022-11-15T23:15:50.024Z,85.93
2022-11-15T23:18:19.969Z,85.74
2022-11-15T23:20:47.560Z,85.76
2022-11-15T23:23:16.483Z,85.85
2022-11-15T23:25:45.098Z,85.83
2022-11-15T23:28:12.801Z,86.01
2022-11-15T23:30:40.430Z,85.95
2022-11-15T23:33:14.646Z,86.00
2022-11-15T23:35:42.228Z,86.12
2022-11-15T23:38:09.834Z,86.36
2022-11-15T23:40:37.430Z,86.28
2022-11-15T23:43:05.051Z,86.44
2022-11-15T23:45:32.674Z,86.45
2022-11-15T23:48:01.700Z,86.33
2022-11-15T23:50:29.379Z,86.22
2022-11-15T23:52:56.995Z,86.37
2022-11-15T23:55:24.571Z,86.31
2022-11-15T23:57:52.222Z,86.29
